sensor_id;sensor_type;location;lat;lon;timestamp;P1;durP1;ratioP1;P2;durP2;ratioP2
45388;SDS011;31127;52.078;4.370;2023-08-20T00:01:26;12.75;;;2.80;;
45388;SDS011;31127;52.078;4.370;2023-08-20T00:06:25;12.40;;;3.08;;
45388;SDS011;31127;52.078;4.370;2023-08-20T00:11:20;12.43;;;3.28;;
45388;SDS011;31127;52.078;4.370;2023-08-20T00:16:16;14.35;;;2.85;;
45388;SDS011;31127;52.078;4.370;2023-08-20T00:21:13;13.20;;;3.45;;
45388;SDS011;31127;52.078;4.370;2023-08-20T00:26:09;12.00;;;2.80;;
45388;SDS011;31127;52.078;4.370;2023-08-20T00:31:25;12.52;;;3.17;;
45388;SDS011;31127;52.078;4.370;2023-08-20T00:36:20;14.38;;;2.35;;
45388;SDS011;31127;52.078;4.370;2023-08-20T00:41:35;9.40;;;3.03;;
45388;SDS011;31127;52.078;4.370;2023-08-20T00:46:31;11.83;;;3.13;;
45388;SDS011;31127;52.078;4.370;2023-08-20T00:51:47;11.55;;;3.42;;
45388;SDS011;31127;52.078;4.370;2023-08-20T00:57:02;10.75;;;3.17;;
45388;SDS011;31127;52.078;4.370;2023-08-20T01:01:58;8.05;;;2.33;;
45388;SDS011;31127;52.078;4.370;2023-08-20T01:11:56;10.52;;;3.00;;
45388;SDS011;31127;52.078;4.370;2023-08-20T01:16:53;14.20;;;3.03;;
45388;SDS011;31127;52.078;4.370;2023-08-20T01:22:05;6.95;;;2.20;;
45388;SDS011;31127;52.078;4.370;2023-08-20T01:32:02;11.05;;;2.35;;
45388;SDS011;31127;52.078;4.370;2023-08-20T01:36:58;13.73;;;2.72;;
45388;SDS011;31127;52.078;4.370;2023-08-20T01:41:53;17.40;;;2.90;;
45388;SDS011;31127;52.078;4.370;2023-08-20T01:46:49;12.52;;;2.88;;
45388;SDS011;31127;52.078;4.370;2023-08-20T01:51:44;13.13;;;2.83;;
45388;SDS011;31127;52.078;4.370;2023-08-20T01:56:39;12.03;;;2.87;;
45388;SDS011;31127;52.078;4.370;2023-08-20T02:01:35;6.88;;;2.75;;
45388;SDS011;31127;52.078;4.370;2023-08-20T02:06:31;12.05;;;3.67;;
45388;SDS011;31127;52.078;4.370;2023-08-20T02:11:47;17.25;;;3.75;;
45388;SDS011;31127;52.078;4.370;2023-08-20T02:16:42;11.32;;;3.33;;
45388;SDS011;31127;52.078;4.370;2023-08-20T02:21:58;11.05;;;2.55;;
45388;SDS011;31127;52.078;4.370;2023-08-20T02:26:55;14.18;;;3.42;;
45388;SDS011;31127;52.078;4.370;2023-08-20T02:31:50;12.32;;;3.25;;
45388;SDS011;31127;52.078;4.370;2023-08-20T02:36:47;11.52;;;3.17;;
45388;SDS011;31127;52.078;4.370;2023-08-20T02:41:43;16.27;;;3.28;;
45388;SDS011;31127;52.078;4.370;2023-08-20T02:46:39;11.15;;;2.67;;
45388;SDS011;31127;52.078;4.370;2023-08-20T02:51:54;15.73;;;3.47;;
45388;SDS011;31127;52.078;4.370;2023-08-20T02:57:04;12.85;;;2.67;;
45388;SDS011;31127;52.078;4.370;2023-08-20T03:01:59;11.40;;;3.30;;
45388;SDS011;31127;52.078;4.370;2023-08-20T03:06:55;8.75;;;2.67;;
45388;SDS011;31127;52.078;4.370;2023-08-20T03:11:50;13.60;;;3.55;;
45388;SDS011;31127;52.078;4.370;2023-08-20T03:16:46;10.90;;;3.00;;
45388;SDS011;31127;52.078;4.370;2023-08-20T03:21:42;18.17;;;3.97;;
45388;SDS011;31127;52.078;4.370;2023-08-20T03:26:37;11.68;;;3.65;;
45388;SDS011;31127;52.078;4.370;2023-08-20T03:31:53;14.38;;;3.75;;
45388;SDS011;31127;52.078;4.370;2023-08-20T03:36:49;16.42;;;3.35;;
45388;SDS011;31127;52.078;4.370;2023-08-20T03:42:05;10.68;;;2.85;;
45388;SDS011;31127;52.078;4.370;2023-08-20T03:47:01;11.23;;;2.88;;
45388;SDS011;31127;52.078;4.370;2023-08-20T03:51:57;10.50;;;2.90;;
45388;SDS011;31127;52.078;4.370;2023-08-20T03:56:52;6.63;;;3.17;;
45388;SDS011;31127;52.078;4.370;2023-08-20T04:01:48;13.30;;;3.35;;
45388;SDS011;31127;52.078;4.370;2023-08-20T04:07:03;10.90;;;2.90;;
45388;SDS011;31127;52.078;4.370;2023-08-20T04:12:01;13.68;;;3.40;;
45388;SDS011;31127;52.078;4.370;2023-08-20T04:16:56;12.90;;;3.47;;
45388;SDS011;31127;52.078;4.370;2023-08-20T04:21:51;10.93;;;2.90;;
45388;SDS011;31127;52.078;4.370;2023-08-20T04:27:07;11.60;;;3.50;;
45388;SDS011;31127;52.078;4.370;2023-08-20T04:32:03;13.52;;;3.90;;
45388;SDS011;31127;52.078;4.370;2023-08-20T04:36:59;12.40;;;3.50;;
45388;SDS011;31127;52.078;4.370;2023-08-20T04:41:55;11.88;;;3.28;;
45388;SDS011;31127;52.078;4.370;2023-08-20T04:46:52;11.38;;;4.47;;
45388;SDS011;31127;52.078;4.370;2023-08-20T04:51:48;14.63;;;3.72;;
45388;SDS011;31127;52.078;4.370;2023-08-20T04:57:04;11.43;;;3.67;;
45388;SDS011;31127;52.078;4.370;2023-08-20T05:02:19;8.70;;;3.00;;
45388;SDS011;31127;52.078;4.370;2023-08-20T05:07:35;11.32;;;3.30;;
45388;SDS011;31127;52.078;4.370;2023-08-20T05:12:31;17.53;;;5.53;;
45388;SDS011;31127;52.078;4.370;2023-08-20T05:17:26;18.93;;;6.40;;
45388;SDS011;31127;52.078;4.370;2023-08-20T05:22:21;12.85;;;3.95;;
45388;SDS011;31127;52.078;4.370;2023-08-20T05:27:17;12.50;;;3.90;;
45388;SDS011;31127;52.078;4.370;2023-08-20T05:32:15;7.75;;;3.28;;
45388;SDS011;31127;52.078;4.370;2023-08-20T05:37:12;12.43;;;3.42;;
45388;SDS011;31127;52.078;4.370;2023-08-20T05:42:08;11.70;;;3.97;;
45388;SDS011;31127;52.078;4.370;2023-08-20T05:47:30;10.70;;;4.07;;
45388;SDS011;31127;52.078;4.370;2023-08-20T05:52:26;15.30;;;4.15;;
45388;SDS011;31127;52.078;4.370;2023-08-20T05:57:42;15.75;;;4.10;;
45388;SDS011;31127;52.078;4.370;2023-08-20T06:02:39;12.68;;;3.53;;
45388;SDS011;31127;52.078;4.370;2023-08-20T06:07:54;12.55;;;4.03;;
45388;SDS011;31127;52.078;4.370;2023-08-20T06:12:50;14.60;;;4.15;;
45388;SDS011;31127;52.078;4.370;2023-08-20T06:17:45;13.98;;;3.85;;
45388;SDS011;31127;52.078;4.370;2023-08-20T06:22:40;18.20;;;4.47;;
45388;SDS011;31127;52.078;4.370;2023-08-20T06:27:36;14.05;;;3.85;;
45388;SDS011;31127;52.078;4.370;2023-08-20T06:32:31;13.82;;;3.90;;
45388;SDS011;31127;52.078;4.370;2023-08-20T06:37:27;8.73;;;3.07;;
45388;SDS011;31127;52.078;4.370;2023-08-20T06:42:22;7.63;;;2.37;;
45388;SDS011;31127;52.078;4.370;2023-08-20T06:47:18;13.50;;;3.70;;
45388;SDS011;31127;52.078;4.370;2023-08-20T06:52:33;13.35;;;3.28;;
45388;SDS011;31127;52.078;4.370;2023-08-20T06:57:29;16.70;;;3.20;;
45388;SDS011;31127;52.078;4.370;2023-08-20T07:02:24;15.13;;;3.50;;
45388;SDS011;31127;52.078;4.370;2023-08-20T07:07:19;13.80;;;3.63;;
45388;SDS011;31127;52.078;4.370;2023-08-20T07:12:15;13.63;;;3.88;;
45388;SDS011;31127;52.078;4.370;2023-08-20T07:17:12;12.27;;;3.00;;
45388;SDS011;31127;52.078;4.370;2023-08-20T07:22:07;9.18;;;2.33;;
45388;SDS011;31127;52.078;4.370;2023-08-20T07:27:03;11.70;;;2.70;;
45388;SDS011;31127;52.078;4.370;2023-08-20T07:32:05;9.77;;;2.90;;
45388;SDS011;31127;52.078;4.370;2023-08-20T07:37:21;14.65;;;2.97;;
45388;SDS011;31127;52.078;4.370;2023-08-20T07:42:36;12.00;;;2.88;;
45388;SDS011;31127;52.078;4.370;2023-08-20T07:47:32;14.55;;;3.75;;
45388;SDS011;31127;52.078;4.370;2023-08-20T07:52:27;11.37;;;3.63;;
45388;SDS011;31127;52.078;4.370;2023-08-20T07:57:23;10.98;;;2.58;;
45388;SDS011;31127;52.078;4.370;2023-08-20T08:02:18;13.38;;;2.90;;
45388;SDS011;31127;52.078;4.370;2023-08-20T08:07:15;11.57;;;3.40;;
45388;SDS011;31127;52.078;4.370;2023-08-20T08:12:31;11.48;;;3.03;;
45388;SDS011;31127;52.078;4.370;2023-08-20T08:17:46;11.77;;;3.08;;
45388;SDS011;31127;52.078;4.370;2023-08-20T08:22:41;10.67;;;2.53;;
45388;SDS011;31127;52.078;4.370;2023-08-20T08:27:39;14.73;;;3.10;;
45388;SDS011;31127;52.078;4.370;2023-08-20T08:32:35;10.38;;;2.47;;
45388;SDS011;31127;52.078;4.370;2023-08-20T08:37:30;12.82;;;2.92;;
45388;SDS011;31127;52.078;4.370;2023-08-20T08:42:26;13.60;;;2.65;;
45388;SDS011;31127;52.078;4.370;2023-08-20T08:47:41;8.45;;;2.58;;
45388;SDS011;31127;52.078;4.370;2023-08-20T08:52:37;12.45;;;2.30;;
45388;SDS011;31127;52.078;4.370;2023-08-20T08:57:37;13.05;;;2.97;;
45388;SDS011;31127;52.078;4.370;2023-08-20T09:02:32;10.63;;;2.17;;
45388;SDS011;31127;52.078;4.370;2023-08-20T09:07:28;10.80;;;2.80;;
45388;SDS011;31127;52.078;4.370;2023-08-20T09:12:23;7.33;;;2.43;;
45388;SDS011;31127;52.078;4.370;2023-08-20T09:17:18;10.40;;;2.03;;
45388;SDS011;31127;52.078;4.370;2023-08-20T09:22:17;5.93;;;2.00;;
45388;SDS011;31127;52.078;4.370;2023-08-20T09:27:12;10.55;;;2.30;;
45388;SDS011;31127;52.078;4.370;2023-08-20T09:32:08;6.65;;;1.95;;
45388;SDS011;31127;52.078;4.370;2023-08-20T09:37:15;7.97;;;1.90;;
45388;SDS011;31127;52.078;4.370;2023-08-20T09:42:30;11.48;;;2.13;;
45388;SDS011;31127;52.078;4.370;2023-08-20T09:47:27;5.95;;;2.13;;
45388;SDS011;31127;52.078;4.370;2023-08-20T09:52:25;8.13;;;2.05;;
45388;SDS011;31127;52.078;4.370;2023-08-20T09:57:40;7.18;;;1.98;;
45388;SDS011;31127;52.078;4.370;2023-08-20T10:02:39;6.18;;;1.98;;
45388;SDS011;31127;52.078;4.370;2023-08-20T10:07:55;7.07;;;2.25;;
45388;SDS011;31127;52.078;4.370;2023-08-20T10:12:50;7.78;;;2.05;;
45388;SDS011;31127;52.078;4.370;2023-08-20T10:17:46;8.85;;;2.58;;
45388;SDS011;31127;52.078;4.370;2023-08-20T10:22:43;5.45;;;1.73;;
45388;SDS011;31127;52.078;4.370;2023-08-20T10:27:40;8.50;;;2.28;;
45388;SDS011;31127;52.078;4.370;2023-08-20T10:48:23;5.97;;;2.65;;
45388;SDS011;31127;52.078;4.370;2023-08-20T10:53:39;5.55;;;2.67;;
45388;SDS011;31127;52.078;4.370;2023-08-20T10:58:55;3.42;;;2.47;;
45388;SDS011;31127;52.078;4.370;2023-08-20T11:03:50;3.67;;;2.10;;
45388;SDS011;31127;52.078;4.370;2023-08-20T11:09:06;4.60;;;2.60;;
45388;SDS011;31127;52.078;4.370;2023-08-20T11:14:05;3.97;;;2.72;;
45388;SDS011;31127;52.078;4.370;2023-08-20T11:19:21;6.05;;;2.83;;
45388;SDS011;31127;52.078;4.370;2023-08-20T11:24:17;5.40;;;2.78;;
45388;SDS011;31127;52.078;4.370;2023-08-20T11:29:16;4.32;;;2.20;;
45388;SDS011;31127;52.078;4.370;2023-08-20T11:34:20;3.97;;;2.45;;
45388;SDS011;31127;52.078;4.370;2023-08-20T11:39:16;4.30;;;2.83;;
45388;SDS011;31127;52.078;4.370;2023-08-20T11:44:18;4.73;;;2.73;;
45388;SDS011;31127;52.078;4.370;2023-08-20T11:49:34;6.78;;;2.70;;
45388;SDS011;31127;52.078;4.370;2023-08-20T11:54:31;5.60;;;2.40;;
45388;SDS011;31127;52.078;4.370;2023-08-20T11:59:26;4.80;;;2.70;;
45388;SDS011;31127;52.078;4.370;2023-08-20T12:04:25;5.87;;;2.90;;
45388;SDS011;31127;52.078;4.370;2023-08-20T12:09:21;4.47;;;2.58;;
45388;SDS011;31127;52.078;4.370;2023-08-20T12:14:17;5.65;;;2.78;;
45388;SDS011;31127;52.078;4.370;2023-08-20T12:19:13;6.13;;;2.60;;
45388;SDS011;31127;52.078;4.370;2023-08-20T12:24:09;4.80;;;2.10;;
45388;SDS011;31127;52.078;4.370;2023-08-20T12:29:05;7.00;;;2.90;;
45388;SDS011;31127;52.078;4.370;2023-08-20T12:34:00;6.47;;;2.50;;
45388;SDS011;31127;52.078;4.370;2023-08-20T12:38:56;4.40;;;1.80;;
45388;SDS011;31127;52.078;4.370;2023-08-20T12:43:51;3.17;;;1.75;;
45388;SDS011;31127;52.078;4.370;2023-08-20T12:48:47;3.80;;;1.80;;
45388;SDS011;31127;52.078;4.370;2023-08-20T12:53:42;5.47;;;2.13;;
45388;SDS011;31127;52.078;4.370;2023-08-20T12:58:38;4.85;;;2.05;;
45388;SDS011;31127;52.078;4.370;2023-08-20T13:03:36;3.65;;;2.13;;
45388;SDS011;31127;52.078;4.370;2023-08-20T13:08:52;4.80;;;1.70;;
45388;SDS011;31127;52.078;4.370;2023-08-20T13:14:07;5.00;;;2.67;;
45388;SDS011;31127;52.078;4.370;2023-08-20T13:19:03;5.07;;;3.00;;
45388;SDS011;31127;52.078;4.370;2023-08-20T13:23:59;4.10;;;2.13;;
45388;SDS011;31127;52.078;4.370;2023-08-20T13:28:54;4.93;;;2.03;;
45388;SDS011;31127;52.078;4.370;2023-08-20T13:34:09;5.25;;;2.13;;
45388;SDS011;31127;52.078;4.370;2023-08-20T13:39:05;4.00;;;1.90;;
45388;SDS011;31127;52.078;4.370;2023-08-20T13:44:01;7.60;;;2.20;;
45388;SDS011;31127;52.078;4.370;2023-08-20T13:48:56;5.25;;;1.65;;
45388;SDS011;31127;52.078;4.370;2023-08-20T13:54:03;3.90;;;1.55;;
45388;SDS011;31127;52.078;4.370;2023-08-20T13:59:18;3.30;;;1.73;;
45388;SDS011;31127;52.078;4.370;2023-08-20T14:04:35;5.10;;;2.65;;
45388;SDS011;31127;52.078;4.370;2023-08-20T14:09:30;4.05;;;1.60;;
45388;SDS011;31127;52.078;4.370;2023-08-20T14:14:26;5.10;;;2.00;;
45388;SDS011;31127;52.078;4.370;2023-08-20T14:19:21;4.30;;;1.90;;
45388;SDS011;31127;52.078;4.370;2023-08-20T14:24:36;4.28;;;1.85;;
45388;SDS011;31127;52.078;4.370;2023-08-20T14:29:32;4.45;;;1.58;;
45388;SDS011;31127;52.078;4.370;2023-08-20T14:34:47;5.20;;;1.65;;
45388;SDS011;31127;52.078;4.370;2023-08-20T14:40:03;4.03;;;1.58;;
45388;SDS011;31127;52.078;4.370;2023-08-20T14:45:02;5.65;;;1.63;;
45388;SDS011;31127;52.078;4.370;2023-08-20T14:49:59;5.10;;;1.60;;
45388;SDS011;31127;52.078;4.370;2023-08-20T14:54:54;2.83;;;1.77;;
45388;SDS011;31127;52.078;4.370;2023-08-20T15:00:10;6.78;;;2.13;;
45388;SDS011;31127;52.078;4.370;2023-08-20T15:05:09;3.78;;;2.22;;
45388;SDS011;31127;52.078;4.370;2023-08-20T15:10:25;5.45;;;1.90;;
45388;SDS011;31127;52.078;4.370;2023-08-20T15:15:40;3.10;;;1.50;;
45388;SDS011;31127;52.078;4.370;2023-08-20T15:20:36;4.82;;;1.80;;
45388;SDS011;31127;52.078;4.370;2023-08-20T15:25:52;4.78;;;1.90;;
45388;SDS011;31127;52.078;4.370;2023-08-20T15:31:03;3.42;;;2.10;;
45388;SDS011;31127;52.078;4.370;2023-08-20T15:36:18;3.47;;;1.80;;
45388;SDS011;31127;52.078;4.370;2023-08-20T15:41:34;3.58;;;2.17;;
45388;SDS011;31127;52.078;4.370;2023-08-20T15:46:49;6.70;;;1.85;;
45388;SDS011;31127;52.078;4.370;2023-08-20T15:52:05;6.10;;;1.90;;
45388;SDS011;31127;52.078;4.370;2023-08-20T15:57:01;3.40;;;1.80;;
45388;SDS011;31127;52.078;4.370;2023-08-20T16:02:17;5.05;;;2.08;;
45388;SDS011;31127;52.078;4.370;2023-08-20T16:07:32;2.70;;;1.42;;
45388;SDS011;31127;52.078;4.370;2023-08-20T16:12:29;5.82;;;2.00;;
45388;SDS011;31127;52.078;4.370;2023-08-20T16:17:24;4.43;;;2.20;;
45388;SDS011;31127;52.078;4.370;2023-08-20T16:22:41;3.63;;;2.15;;
45388;SDS011;31127;52.078;4.370;2023-08-20T16:27:56;6.28;;;1.95;;
45388;SDS011;31127;52.078;4.370;2023-08-20T16:33:12;4.72;;;1.85;;
45388;SDS011;31127;52.078;4.370;2023-08-20T16:38:27;7.28;;;2.58;;
45388;SDS011;31127;52.078;4.370;2023-08-20T16:43:23;4.80;;;1.67;;
45388;SDS011;31127;52.078;4.370;2023-08-20T16:48:38;4.47;;;2.38;;
45388;SDS011;31127;52.078;4.370;2023-08-20T16:53:53;3.95;;;2.00;;
45388;SDS011;31127;52.078;4.370;2023-08-20T16:58:49;7.07;;;2.20;;
45388;SDS011;31127;52.078;4.370;2023-08-20T17:04:04;6.95;;;2.38;;
45388;SDS011;31127;52.078;4.370;2023-08-20T17:09:00;4.45;;;1.80;;
45388;SDS011;31127;52.078;4.370;2023-08-20T17:14:15;5.78;;;1.67;;
45388;SDS011;31127;52.078;4.370;2023-08-20T17:19:10;4.50;;;1.60;;
45388;SDS011;31127;52.078;4.370;2023-08-20T17:24:06;5.43;;;1.70;;
45388;SDS011;31127;52.078;4.370;2023-08-20T17:29:21;3.63;;;1.60;;
45388;SDS011;31127;52.078;4.370;2023-08-20T17:34:17;7.68;;;2.17;;
45388;SDS011;31127;52.078;4.370;2023-08-20T17:39:32;5.63;;;1.98;;
45388;SDS011;31127;52.078;4.370;2023-08-20T17:44:28;7.18;;;2.65;;
45388;SDS011;31127;52.078;4.370;2023-08-20T17:49:43;8.88;;;1.92;;
45388;SDS011;31127;52.078;4.370;2023-08-20T17:54:58;5.72;;;1.60;;
45388;SDS011;31127;52.078;4.370;2023-08-20T17:59:58;7.75;;;1.52;;
45388;SDS011;31127;52.078;4.370;2023-08-20T18:04:54;7.13;;;1.80;;
45388;SDS011;31127;52.078;4.370;2023-08-20T18:09:50;6.43;;;2.30;;
45388;SDS011;31127;52.078;4.370;2023-08-20T18:14:46;7.50;;;1.70;;
45388;SDS011;31127;52.078;4.370;2023-08-20T18:19:42;10.93;;;2.35;;
45388;SDS011;31127;52.078;4.370;2023-08-20T18:24:57;5.55;;;1.60;;
45388;SDS011;31127;52.078;4.370;2023-08-20T18:30:11;4.43;;;1.52;;
45388;SDS011;31127;52.078;4.370;2023-08-20T18:35:07;5.13;;;1.95;;
45388;SDS011;31127;52.078;4.370;2023-08-20T18:40:02;6.85;;;1.65;;
45388;SDS011;31127;52.078;4.370;2023-08-20T18:45:00;6.32;;;2.05;;
45388;SDS011;31127;52.078;4.370;2023-08-20T18:50:05;6.75;;;1.88;;
45388;SDS011;31127;52.078;4.370;2023-08-20T18:55:03;7.88;;;2.55;;
45388;SDS011;31127;52.078;4.370;2023-08-20T19:00:19;8.50;;;2.13;;
45388;SDS011;31127;52.078;4.370;2023-08-20T19:05:18;7.82;;;2.40;;
45388;SDS011;31127;52.078;4.370;2023-08-20T19:10:14;8.20;;;2.40;;
45388;SDS011;31127;52.078;4.370;2023-08-20T19:15:29;9.00;;;2.75;;
45388;SDS011;31127;52.078;4.370;2023-08-20T19:20:25;6.65;;;2.70;;
45388;SDS011;31127;52.078;4.370;2023-08-20T19:25:21;7.45;;;2.47;;
45388;SDS011;31127;52.078;4.370;2023-08-20T19:30:42;7.25;;;2.20;;
45388;SDS011;31127;52.078;4.370;2023-08-20T19:35:38;7.18;;;2.53;;
45388;SDS011;31127;52.078;4.370;2023-08-20T19:40:35;9.73;;;2.35;;
45388;SDS011;31127;52.078;4.370;2023-08-20T19:45:31;10.30;;;2.10;;
45388;SDS011;31127;52.078;4.370;2023-08-20T19:50:28;6.22;;;2.60;;
45388;SDS011;31127;52.078;4.370;2023-08-20T19:55:43;7.05;;;2.40;;
45388;SDS011;31127;52.078;4.370;2023-08-20T20:00:39;7.40;;;2.03;;
45388;SDS011;31127;52.078;4.370;2023-08-20T20:05:34;6.90;;;2.17;;
45388;SDS011;31127;52.078;4.370;2023-08-20T20:10:30;6.93;;;3.15;;
45388;SDS011;31127;52.078;4.370;2023-08-20T20:15:26;9.32;;;2.10;;
45388;SDS011;31127;52.078;4.370;2023-08-20T20:20:41;5.15;;;1.88;;
45388;SDS011;31127;52.078;4.370;2023-08-20T20:25:39;9.57;;;1.98;;
45388;SDS011;31127;52.078;4.370;2023-08-20T20:30:35;7.32;;;1.77;;
45388;SDS011;31127;52.078;4.370;2023-08-20T20:35:31;4.75;;;1.85;;
45388;SDS011;31127;52.078;4.370;2023-08-20T20:40:47;6.85;;;2.08;;
45388;SDS011;31127;52.078;4.370;2023-08-20T20:45:43;5.93;;;1.92;;
45388;SDS011;31127;52.078;4.370;2023-08-20T20:50:39;6.70;;;2.67;;
45388;SDS011;31127;52.078;4.370;2023-08-20T20:55:35;6.30;;;2.10;;
45388;SDS011;31127;52.078;4.370;2023-08-20T21:00:50;8.02;;;2.08;;
45388;SDS011;31127;52.078;4.370;2023-08-20T21:06:05;7.20;;;1.88;;
45388;SDS011;31127;52.078;4.370;2023-08-20T21:11:01;7.18;;;2.00;;
45388;SDS011;31127;52.078;4.370;2023-08-20T21:15:58;6.20;;;2.13;;
45388;SDS011;31127;52.078;4.370;2023-08-20T21:20:54;7.15;;;2.25;;
45388;SDS011;31127;52.078;4.370;2023-08-20T21:25:50;9.05;;;2.78;;
45388;SDS011;31127;52.078;4.370;2023-08-20T21:30:45;7.90;;;2.60;;
45388;SDS011;31127;52.078;4.370;2023-08-20T21:36:01;8.00;;;2.83;;
45388;SDS011;31127;52.078;4.370;2023-08-20T21:41:16;7.43;;;2.50;;
45388;SDS011;31127;52.078;4.370;2023-08-20T21:46:12;10.60;;;2.97;;
45388;SDS011;31127;52.078;4.370;2023-08-20T21:51:07;7.05;;;2.50;;
45388;SDS011;31127;52.078;4.370;2023-08-20T21:56:05;7.78;;;2.20;;
45388;SDS011;31127;52.078;4.370;2023-08-20T22:01:00;5.78;;;2.30;;
45388;SDS011;31127;52.078;4.370;2023-08-20T22:05:59;3.78;;;2.08;;
45388;SDS011;31127;52.078;4.370;2023-08-20T22:10:58;5.65;;;2.88;;
45388;SDS011;31127;52.078;4.370;2023-08-20T22:15:54;7.22;;;2.63;;
45388;SDS011;31127;52.078;4.370;2023-08-20T22:20:52;5.22;;;2.50;;
45388;SDS011;31127;52.078;4.370;2023-08-20T22:25:48;6.50;;;2.75;;
45388;SDS011;31127;52.078;4.370;2023-08-20T22:30:44;6.50;;;2.40;;
45388;SDS011;31127;52.078;4.370;2023-08-20T22:35:39;7.50;;;2.85;;
45388;SDS011;31127;52.078;4.370;2023-08-20T22:40:55;6.07;;;2.67;;
45388;SDS011;31127;52.078;4.370;2023-08-20T22:45:50;8.63;;;2.67;;
45388;SDS011;31127;52.078;4.370;2023-08-20T22:50:46;6.43;;;2.80;;
45388;SDS011;31127;52.078;4.370;2023-08-20T22:55:51;11.50;;;3.28;;
45388;SDS011;31127;52.078;4.370;2023-08-20T23:00:48;6.13;;;2.47;;
45388;SDS011;31127;52.078;4.370;2023-08-20T23:05:44;6.05;;;2.45;;
45388;SDS011;31127;52.078;4.370;2023-08-20T23:10:39;7.20;;;2.45;;
45388;SDS011;31127;52.078;4.370;2023-08-20T23:15:35;8.93;;;3.60;;
45388;SDS011;31127;52.078;4.370;2023-08-20T23:20:30;6.40;;;2.70;;
45388;SDS011;31127;52.078;4.370;2023-08-20T23:25:25;8.50;;;3.70;;
45388;SDS011;31127;52.078;4.370;2023-08-20T23:30:21;5.57;;;2.35;;
45388;SDS011;31127;52.078;4.370;2023-08-20T23:35:38;9.18;;;2.67;;
45388;SDS011;31127;52.078;4.370;2023-08-20T23:40:54;5.75;;;2.58;;
45388;SDS011;31127;52.078;4.370;2023-08-20T23:51:11;7.13;;;2.63;;
45388;SDS011;31127;52.078;4.370;2023-08-20T23:56:09;6.07;;;2.50;;
